sensor_id;sensor_type;location;lat;lon;timestamp;pressure;altitude;pressure_sealevel;temperature
70533;BMP180;58088;51.186;17.130;2022-10-24T00:00:47;100090.40;;;13.50
70533;BMP180;58088;51.186;17.130;2022-10-24T00:03:14;100093.00;;;13.50
70533;BMP180;58088;51.186;17.130;2022-10-24T00:05:46;100090.40;;;13.50
70533;BMP180;58088;51.186;17.130;2022-10-24T00:08:15;100102.80;;;13.50
70533;BMP180;58088;51.186;17.130;2022-10-24T00:10:46;100112.20;;;13.50
70533;BMP180;58088;51.186;17.130;2022-10-24T00:13:15;100105.20;;;13.48
70533;BMP180;58088;51.186;17.130;2022-10-24T00:15:48;100114.20;;;13.42
70533;BMP180;58088;51.186;17.130;2022-10-24T00:18:15;100119.00;;;13.42
70533;BMP180;58088;51.186;17.130;2022-10-24T00:20:42;100111.80;;;13.50
70533;BMP180;58088;51.186;17.130;2022-10-24T00:23:08;100122.00;;;13.48
70533;BMP180;58088;51.186;17.130;2022-10-24T00:25:35;100141.20;;;13.48
70533;BMP180;58088;51.186;17.130;2022-10-24T00:28:01;100134.20;;;13.50
70533;BMP180;58088;51.186;17.130;2022-10-24T00:30:27;100151.80;;;13.50
70533;BMP180;58088;51.186;17.130;2022-10-24T00:32:54;100136.00;;;13.50
70533;BMP180;58088;51.186;17.130;2022-10-24T00:35:20;100131.40;;;13.50
70533;BMP180;58088;51.186;17.130;2022-10-24T00:37:46;100125.40;;;13.40
70533;BMP180;58088;51.186;17.130;2022-10-24T00:40:18;100134.80;;;13.40
70533;BMP180;58088;51.186;17.130;2022-10-24T00:42:47;100132.00;;;13.42
70533;BMP180;58088;51.186;17.130;2022-10-24T00:51:08;100114.80;;;13.50
70533;BMP180;58088;51.186;17.130;2022-10-24T00:53:44;100118.40;;;13.50
70533;BMP180;58088;51.186;17.130;2022-10-24T00:56:14;100099.20;;;13.50
70533;BMP180;58088;51.186;17.130;2022-10-24T00:58:43;100098.40;;;13.50
70533;BMP180;58088;51.186;17.130;2022-10-24T01:01:12;100086.20;;;13.50
70533;BMP180;58088;51.186;17.130;2022-10-24T01:03:39;100078.00;;;13.48
70533;BMP180;58088;51.186;17.130;2022-10-24T01:06:53;100072.80;;;13.44
70533;BMP180;58088;51.186;17.130;2022-10-24T01:18:11;100062.80;;;13.40
70533;BMP180;58088;51.186;17.130;2022-10-24T01:29:04;100043.80;;;13.40
70533;BMP180;58088;51.186;17.130;2022-10-24T01:31:46;100037.20;;;13.40
70533;BMP180;58088;51.186;17.130;2022-10-24T01:34:34;100035.80;;;13.38
70533;BMP180;58088;51.186;17.130;2022-10-24T01:37:12;100031.00;;;13.30
70533;BMP180;58088;51.186;17.130;2022-10-24T01:39:49;100017.20;;;13.32
70533;BMP180;58088;51.186;17.130;2022-10-24T01:42:21;100018.60;;;13.30
70533;BMP180;58088;51.186;17.130;2022-10-24T01:44:53;100017.20;;;13.40
70533;BMP180;58088;51.186;17.130;2022-10-24T01:47:26;100009.80;;;13.40
70533;BMP180;58088;51.186;17.130;2022-10-24T01:50:02;100001.60;;;13.40
70533;BMP180;58088;51.186;17.130;2022-10-24T01:52:35;99999.20;;;13.40
70533;BMP180;58088;51.186;17.130;2022-10-24T01:55:04;99997.40;;;13.40
70533;BMP180;58088;51.186;17.130;2022-10-24T01:57:33;99986.00;;;13.40
70533;BMP180;58088;51.186;17.130;2022-10-24T02:00:03;99990.00;;;13.40
70533;BMP180;58088;51.186;17.130;2022-10-24T02:02:47;99987.80;;;13.40
70533;BMP180;58088;51.186;17.130;2022-10-24T02:05:25;99983.20;;;13.40
70533;BMP180;58088;51.186;17.130;2022-10-24T02:07:57;99982.40;;;13.40
70533;BMP180;58088;51.186;17.130;2022-10-24T02:10:31;99985.20;;;13.38
70533;BMP180;58088;51.186;17.130;2022-10-24T02:13:12;99981.80;;;13.40
70533;BMP180;58088;51.186;17.130;2022-10-24T02:15:48;99980.20;;;13.40
70533;BMP180;58088;51.186;17.130;2022-10-24T02:18:17;99992.40;;;13.40
70533;BMP180;58088;51.186;17.130;2022-10-24T02:20:53;99988.00;;;13.40
70533;BMP180;58088;51.186;17.130;2022-10-24T02:23:36;99990.80;;;13.44
70533;BMP180;58088;51.186;17.130;2022-10-24T02:26:13;100006.60;;;13.50
70533;BMP180;58088;51.186;17.130;2022-10-24T02:28:46;100022.80;;;13.50
70533;BMP180;58088;51.186;17.130;2022-10-24T02:31:19;100024.60;;;13.50
70533;BMP180;58088;51.186;17.130;2022-10-24T02:33:50;99999.20;;;13.50
70533;BMP180;58088;51.186;17.130;2022-10-24T02:36:21;100002.60;;;13.50
70533;BMP180;58088;51.186;17.130;2022-10-24T02:38:52;100007.80;;;13.52
70533;BMP180;58088;51.186;17.130;2022-10-24T02:41:27;99999.80;;;13.52
70533;BMP180;58088;51.186;17.130;2022-10-24T02:43:55;100003.60;;;13.50
70533;BMP180;58088;51.186;17.130;2022-10-24T02:46:23;100014.80;;;13.50
70533;BMP180;58088;51.186;17.130;2022-10-24T02:49:01;100014.20;;;13.60
70533;BMP180;58088;51.186;17.130;2022-10-24T02:51:33;100004.80;;;13.60
70533;BMP180;58088;51.186;17.130;2022-10-24T02:54:01;100000.60;;;13.60
70533;BMP180;58088;51.186;17.130;2022-10-24T02:56:28;100009.80;;;13.50
70533;BMP180;58088;51.186;17.130;2022-10-24T02:58:55;100015.00;;;13.50
70533;BMP180;58088;51.186;17.130;2022-10-24T03:01:21;100003.20;;;13.50
70533;BMP180;58088;51.186;17.130;2022-10-24T03:03:48;100006.40;;;13.48
70533;BMP180;58088;51.186;17.130;2022-10-24T03:06:14;100009.20;;;13.40
70533;BMP180;58088;51.186;17.130;2022-10-24T03:08:40;100004.20;;;13.40
70533;BMP180;58088;51.186;17.130;2022-10-24T03:11:06;100008.00;;;13.40
70533;BMP180;58088;51.186;17.130;2022-10-24T03:13:33;100008.20;;;13.40
70533;BMP180;58088;51.186;17.130;2022-10-24T03:15:59;100014.00;;;13.40
70533;BMP180;58088;51.186;17.130;2022-10-24T03:18:25;100012.00;;;13.40
70533;BMP180;58088;51.186;17.130;2022-10-24T03:20:51;100007.80;;;13.40
70533;BMP180;58088;51.186;17.130;2022-10-24T03:23:17;100005.00;;;13.40
70533;BMP180;58088;51.186;17.130;2022-10-24T03:25:44;99999.80;;;13.38
70533;BMP180;58088;51.186;17.130;2022-10-24T03:28:10;99991.40;;;13.30
70533;BMP180;58088;51.186;17.130;2022-10-24T03:30:36;99982.40;;;13.30
70533;BMP180;58088;51.186;17.130;2022-10-24T03:33:03;99977.00;;;13.30
70533;BMP180;58088;51.186;17.130;2022-10-24T03:35:29;99983.40;;;13.28
70533;BMP180;58088;51.186;17.130;2022-10-24T03:37:55;99985.40;;;13.20
70533;BMP180;58088;51.186;17.130;2022-10-24T03:40:21;99991.40;;;13.20
70533;BMP180;58088;51.186;17.130;2022-10-24T03:42:47;99983.00;;;13.20
70533;BMP180;58088;51.186;17.130;2022-10-24T03:45:13;99989.40;;;13.20
70533;BMP180;58088;51.186;17.130;2022-10-24T03:47:40;99991.20;;;13.20
70533;BMP180;58088;51.186;17.130;2022-10-24T03:50:07;99982.00;;;13.14
70533;BMP180;58088;51.186;17.130;2022-10-24T03:52:33;99977.60;;;13.10
70533;BMP180;58088;51.186;17.130;2022-10-24T03:54:59;99974.00;;;13.10
70533;BMP180;58088;51.186;17.130;2022-10-24T03:57:25;99971.40;;;13.06
70533;BMP180;58088;51.186;17.130;2022-10-24T03:59:51;99987.40;;;13.00
70533;BMP180;58088;51.186;17.130;2022-10-24T04:02:17;99982.20;;;13.00
70533;BMP180;58088;51.186;17.130;2022-10-24T04:04:44;99979.20;;;13.00
70533;BMP180;58088;51.186;17.130;2022-10-24T04:07:10;99982.00;;;13.00
70533;BMP180;58088;51.186;17.130;2022-10-24T04:09:36;99959.80;;;12.92
70533;BMP180;58088;51.186;17.130;2022-10-24T04:12:02;99966.00;;;12.90
70533;BMP180;58088;51.186;17.130;2022-10-24T04:14:29;99969.20;;;12.90
70533;BMP180;58088;51.186;17.130;2022-10-24T04:16:55;99968.60;;;12.94
70533;BMP180;58088;51.186;17.130;2022-10-24T04:19:21;99972.60;;;12.98
70533;BMP180;58088;51.186;17.130;2022-10-24T04:21:47;99970.80;;;12.96
70533;BMP180;58088;51.186;17.130;2022-10-24T04:24:14;99973.00;;;12.90
70533;BMP180;58088;51.186;17.130;2022-10-24T04:26:41;99983.20;;;12.90
70533;BMP180;58088;51.186;17.130;2022-10-24T04:29:07;99981.60;;;12.90
70533;BMP180;58088;51.186;17.130;2022-10-24T04:31:33;99976.00;;;12.90
70533;BMP180;58088;51.186;17.130;2022-10-24T04:33:59;99981.20;;;12.90
70533;BMP180;58088;51.186;17.130;2022-10-24T04:36:25;99984.60;;;12.90
70533;BMP180;58088;51.186;17.130;2022-10-24T04:38:51;99986.60;;;12.90
70533;BMP180;58088;51.186;17.130;2022-10-24T04:41:17;99981.20;;;12.90
70533;BMP180;58088;51.186;17.130;2022-10-24T04:43:43;99986.00;;;12.90
70533;BMP180;58088;51.186;17.130;2022-10-24T04:46:09;99989.60;;;12.90
70533;BMP180;58088;51.186;17.130;2022-10-24T04:48:35;99975.20;;;12.90
70533;BMP180;58088;51.186;17.130;2022-10-24T04:51:02;99975.40;;;12.90
70533;BMP180;58088;51.186;17.130;2022-10-24T04:53:28;99987.40;;;12.90
70533;BMP180;58088;51.186;17.130;2022-10-24T04:55:54;99988.60;;;12.90
70533;BMP180;58088;51.186;17.130;2022-10-24T04:58:20;99992.60;;;12.90
70533;BMP180;58088;51.186;17.130;2022-10-24T05:00:47;99999.00;;;12.90
70533;BMP180;58088;51.186;17.130;2022-10-24T05:03:17;99996.60;;;12.88
70533;BMP180;58088;51.186;17.130;2022-10-24T05:05:43;100002.00;;;12.80
70533;BMP180;58088;51.186;17.130;2022-10-24T05:08:10;100005.80;;;12.80
70533;BMP180;58088;51.186;17.130;2022-10-24T05:10:37;100000.20;;;12.80
70533;BMP180;58088;51.186;17.130;2022-10-24T05:13:03;100015.40;;;12.80
70533;BMP180;58088;51.186;17.130;2022-10-24T05:15:29;100009.20;;;12.80
70533;BMP180;58088;51.186;17.130;2022-10-24T05:17:57;100011.80;;;12.80
70533;BMP180;58088;51.186;17.130;2022-10-24T05:20:24;100010.00;;;12.80
70533;BMP180;58088;51.186;17.130;2022-10-24T05:22:51;100009.20;;;12.80
70533;BMP180;58088;51.186;17.130;2022-10-24T05:25:17;100003.00;;;12.80
70533;BMP180;58088;51.186;17.130;2022-10-24T05:27:44;100005.60;;;12.80
70533;BMP180;58088;51.186;17.130;2022-10-24T05:30:10;99995.80;;;12.80
70533;BMP180;58088;51.186;17.130;2022-10-24T05:32:36;99995.80;;;12.80
70533;BMP180;58088;51.186;17.130;2022-10-24T05:35:03;100002.00;;;12.80
70533;BMP180;58088;51.186;17.130;2022-10-24T05:37:29;100008.00;;;12.80
70533;BMP180;58088;51.186;17.130;2022-10-24T05:39:55;100007.80;;;12.80
70533;BMP180;58088;51.186;17.130;2022-10-24T05:42:22;100002.40;;;12.80
70533;BMP180;58088;51.186;17.130;2022-10-24T05:44:48;99998.00;;;12.80
70533;BMP180;58088;51.186;17.130;2022-10-24T05:47:14;100007.40;;;12.80
70533;BMP180;58088;51.186;17.130;2022-10-24T05:49:40;100006.00;;;12.80
70533;BMP180;58088;51.186;17.130;2022-10-24T05:52:06;100012.20;;;12.80
70533;BMP180;58088;51.186;17.130;2022-10-24T05:54:32;100009.80;;;12.76
70533;BMP180;58088;51.186;17.130;2022-10-24T05:56:58;100006.60;;;12.70
70533;BMP180;58088;51.186;17.130;2022-10-24T05:59:25;100016.40;;;12.70
70533;BMP180;58088;51.186;17.130;2022-10-24T06:01:51;100013.00;;;12.70
70533;BMP180;58088;51.186;17.130;2022-10-24T06:04:17;100016.40;;;12.70
70533;BMP180;58088;51.186;17.130;2022-10-24T06:06:44;100018.40;;;12.70
70533;BMP180;58088;51.186;17.130;2022-10-24T06:09:11;100016.80;;;12.70
70533;BMP180;58088;51.186;17.130;2022-10-24T06:11:38;100020.00;;;12.70
70533;BMP180;58088;51.186;17.130;2022-10-24T06:14:04;100018.40;;;12.70
70533;BMP180;58088;51.186;17.130;2022-10-24T06:16:31;100018.60;;;12.70
70533;BMP180;58088;51.186;17.130;2022-10-24T06:18:59;100018.00;;;12.70
70533;BMP180;58088;51.186;17.130;2022-10-24T06:21:26;100013.80;;;12.76
70533;BMP180;58088;51.186;17.130;2022-10-24T06:23:52;100021.40;;;12.76
70533;BMP180;58088;51.186;17.130;2022-10-24T06:26:18;100022.80;;;12.80
70533;BMP180;58088;51.186;17.130;2022-10-24T06:28:45;100021.80;;;12.80
70533;BMP180;58088;51.186;17.130;2022-10-24T06:31:11;100019.40;;;12.90
70533;BMP180;58088;51.186;17.130;2022-10-24T06:33:39;100023.80;;;12.90
70533;BMP180;58088;51.186;17.130;2022-10-24T06:36:06;100023.00;;;12.90
70533;BMP180;58088;51.186;17.130;2022-10-24T06:38:35;100025.80;;;12.94
70533;BMP180;58088;51.186;17.130;2022-10-24T06:41:12;100029.20;;;13.00
70533;BMP180;58088;51.186;17.130;2022-10-24T06:43:38;100031.80;;;13.00
70533;BMP180;58088;51.186;17.130;2022-10-24T06:46:13;100036.20;;;13.00
70533;BMP180;58088;51.186;17.130;2022-10-24T06:48:40;100045.40;;;13.00
70533;BMP180;58088;51.186;17.130;2022-10-24T06:51:06;100042.80;;;13.10
70533;BMP180;58088;51.186;17.130;2022-10-24T06:53:33;100046.80;;;13.10
70533;BMP180;58088;51.186;17.130;2022-10-24T06:56:04;100036.80;;;13.20
70533;BMP180;58088;51.186;17.130;2022-10-24T06:58:33;100034.00;;;13.20
70533;BMP180;58088;51.186;17.130;2022-10-24T07:01:14;100038.20;;;13.30
70533;BMP180;58088;51.186;17.130;2022-10-24T07:03:40;100036.00;;;13.40
70533;BMP180;58088;51.186;17.130;2022-10-24T07:06:11;100041.00;;;13.46
70533;BMP180;58088;51.186;17.130;2022-10-24T07:08:38;100035.00;;;13.50
70533;BMP180;58088;51.186;17.130;2022-10-24T07:11:05;100032.40;;;13.60
70533;BMP180;58088;51.186;17.130;2022-10-24T07:13:31;100035.00;;;13.70
70533;BMP180;58088;51.186;17.130;2022-10-24T07:15:57;100038.20;;;13.70
70533;BMP180;58088;51.186;17.130;2022-10-24T07:18:23;100036.60;;;13.80
70533;BMP180;58088;51.186;17.130;2022-10-24T07:20:49;100032.40;;;13.90
70533;BMP180;58088;51.186;17.130;2022-10-24T07:23:16;100036.00;;;13.98
70533;BMP180;58088;51.186;17.130;2022-10-24T07:25:44;100042.20;;;14.00
70533;BMP180;58088;51.186;17.130;2022-10-24T07:28:11;100038.00;;;14.10
70533;BMP180;58088;51.186;17.130;2022-10-24T07:30:38;100034.80;;;14.20
70533;BMP180;58088;51.186;17.130;2022-10-24T07:33:05;100033.80;;;14.30
70533;BMP180;58088;51.186;17.130;2022-10-24T07:35:31;100027.40;;;14.38
70533;BMP180;58088;51.186;17.130;2022-10-24T07:37:58;100029.60;;;14.44
70533;BMP180;58088;51.186;17.130;2022-10-24T07:40:24;100033.20;;;14.56
70533;BMP180;58088;51.186;17.130;2022-10-24T07:42:50;100040.80;;;14.70
70533;BMP180;58088;51.186;17.130;2022-10-24T07:45:16;100040.20;;;14.80
70533;BMP180;58088;51.186;17.130;2022-10-24T07:47:42;100040.60;;;15.00
70533;BMP180;58088;51.186;17.130;2022-10-24T07:50:08;100051.60;;;15.10
70533;BMP180;58088;51.186;17.130;2022-10-24T07:52:35;100057.60;;;15.20
70533;BMP180;58088;51.186;17.130;2022-10-24T07:55:01;100048.60;;;15.38
70533;BMP180;58088;51.186;17.130;2022-10-24T07:57:27;100053.60;;;15.50
70533;BMP180;58088;51.186;17.130;2022-10-24T07:59:53;100053.00;;;15.60
70533;BMP180;58088;51.186;17.130;2022-10-24T08:02:19;100053.00;;;15.76
70533;BMP180;58088;51.186;17.130;2022-10-24T08:04:45;100050.60;;;15.88
70533;BMP180;58088;51.186;17.130;2022-10-24T08:07:11;100047.60;;;16.00
70533;BMP180;58088;51.186;17.130;2022-10-24T08:09:41;100039.40;;;16.10
70533;BMP180;58088;51.186;17.130;2022-10-24T08:12:08;100041.80;;;16.20
70533;BMP180;58088;51.186;17.130;2022-10-24T08:14:40;100045.40;;;16.34
70533;BMP180;58088;51.186;17.130;2022-10-24T08:17:06;100053.00;;;16.50
70533;BMP180;58088;51.186;17.130;2022-10-24T08:19:33;100053.00;;;16.58
70533;BMP180;58088;51.186;17.130;2022-10-24T08:22:00;100050.40;;;16.64
70533;BMP180;58088;51.186;17.130;2022-10-24T08:24:27;100057.60;;;16.70
70533;BMP180;58088;51.186;17.130;2022-10-24T08:26:53;100055.20;;;16.70
70533;BMP180;58088;51.186;17.130;2022-10-24T08:29:22;100050.00;;;16.80
70533;BMP180;58088;51.186;17.130;2022-10-24T08:31:54;100052.80;;;16.80
70533;BMP180;58088;51.186;17.130;2022-10-24T08:34:22;100052.20;;;16.80
70533;BMP180;58088;51.186;17.130;2022-10-24T08:36:49;100054.60;;;16.90
70533;BMP180;58088;51.186;17.130;2022-10-24T08:39:16;100048.00;;;16.92
70533;BMP180;58088;51.186;17.130;2022-10-24T08:41:50;100052.00;;;17.00
70533;BMP180;58088;51.186;17.130;2022-10-24T08:47:41;100035.20;;;17.10
70533;BMP180;58088;51.186;17.130;2022-10-24T08:52:49;100044.20;;;17.20
70533;BMP180;58088;51.186;17.130;2022-10-24T08:55:30;100050.20;;;17.32
70533;BMP180;58088;51.186;17.130;2022-10-24T08:57:59;100053.60;;;17.40
70533;BMP180;58088;51.186;17.130;2022-10-24T09:00:38;100047.20;;;17.50
70533;BMP180;58088;51.186;17.130;2022-10-24T09:03:18;100052.00;;;17.60
70533;BMP180;58088;51.186;17.130;2022-10-24T09:05:53;100054.40;;;17.80
70533;BMP180;58088;51.186;17.130;2022-10-24T09:08:51;100058.00;;;17.90
70533;BMP180;58088;51.186;17.130;2022-10-24T09:11:42;100055.80;;;18.10
70533;BMP180;58088;51.186;17.130;2022-10-24T09:14:18;100054.20;;;18.30
70533;BMP180;58088;51.186;17.130;2022-10-24T09:16:53;100054.80;;;18.50
70533;BMP180;58088;51.186;17.130;2022-10-24T09:19:27;100052.00;;;18.78
70533;BMP180;58088;51.186;17.130;2022-10-24T09:21:57;100053.00;;;19.00
70533;BMP180;58088;51.186;17.130;2022-10-24T09:24:54;100056.20;;;19.20
70533;BMP180;58088;51.186;17.130;2022-10-24T09:27:31;100056.00;;;19.48
70533;BMP180;58088;51.186;17.130;2022-10-24T09:29:59;100050.00;;;19.60
70533;BMP180;58088;51.186;17.130;2022-10-24T09:32:31;100052.00;;;19.80
70533;BMP180;58088;51.186;17.130;2022-10-24T09:35:02;100054.00;;;20.00
70533;BMP180;58088;51.186;17.130;2022-10-24T09:40:28;100056.00;;;20.30
70533;BMP180;58088;51.186;17.130;2022-10-24T09:43:20;100055.40;;;20.50
70533;BMP180;58088;51.186;17.130;2022-10-24T09:46:13;100050.80;;;20.60
70533;BMP180;58088;51.186;17.130;2022-10-24T09:51:48;100062.00;;;20.90
70533;BMP180;58088;51.186;17.130;2022-10-24T09:57:01;100063.00;;;21.18
70533;BMP180;58088;51.186;17.130;2022-10-24T10:04:37;100048.20;;;21.50
70533;BMP180;58088;51.186;17.130;2022-10-24T10:07:17;100046.80;;;21.60
70533;BMP180;58088;51.186;17.130;2022-10-24T10:09:54;100046.00;;;21.70
70533;BMP180;58088;51.186;17.130;2022-10-24T10:12:33;100045.20;;;21.78
70533;BMP180;58088;51.186;17.130;2022-10-24T10:15:16;100039.20;;;21.86
70533;BMP180;58088;51.186;17.130;2022-10-24T10:17:51;100039.40;;;21.98
70533;BMP180;58088;51.186;17.130;2022-10-24T10:20:32;100035.00;;;22.00
70533;BMP180;58088;51.186;17.130;2022-10-24T10:23:29;100029.00;;;22.10
70533;BMP180;58088;51.186;17.130;2022-10-24T10:26:12;100027.60;;;22.10
70533;BMP180;58088;51.186;17.130;2022-10-24T10:28:50;100017.60;;;22.10
70533;BMP180;58088;51.186;17.130;2022-10-24T10:31:25;100017.60;;;22.10
70533;BMP180;58088;51.186;17.130;2022-10-24T10:34:21;100020.40;;;22.04
70533;BMP180;58088;51.186;17.130;2022-10-24T10:37:31;100022.00;;;22.00
70533;BMP180;58088;51.186;17.130;2022-10-24T10:40:23;100028.40;;;22.00
70533;BMP180;58088;51.186;17.130;2022-10-24T10:43:12;100031.40;;;21.92
70533;BMP180;58088;51.186;17.130;2022-10-24T10:45:52;100034.20;;;21.90
70533;BMP180;58088;51.186;17.130;2022-10-24T10:48:52;100028.60;;;21.90
70533;BMP180;58088;51.186;17.130;2022-10-24T10:54:42;100030.40;;;21.94
70533;BMP180;58088;51.186;17.130;2022-10-24T11:00:14;100028.80;;;22.10
70533;BMP180;58088;51.186;17.130;2022-10-24T11:11:15;100016.20;;;22.50
70533;BMP180;58088;51.186;17.130;2022-10-24T11:13:50;100020.80;;;22.50
70533;BMP180;58088;51.186;17.130;2022-10-24T11:16:26;100023.20;;;22.60
70533;BMP180;58088;51.186;17.130;2022-10-24T11:18:59;100022.80;;;22.70
70533;BMP180;58088;51.186;17.130;2022-10-24T11:21:31;100020.00;;;22.80
70533;BMP180;58088;51.186;17.130;2022-10-24T11:24:12;100018.00;;;23.00
70533;BMP180;58088;51.186;17.130;2022-10-24T11:29:32;100015.60;;;23.10
70533;BMP180;58088;51.186;17.130;2022-10-24T11:34:58;100002.60;;;23.20
70533;BMP180;58088;51.186;17.130;2022-10-24T11:37:35;100003.40;;;23.20
70533;BMP180;58088;51.186;17.130;2022-10-24T11:40:15;99994.00;;;23.28
70533;BMP180;58088;51.186;17.130;2022-10-24T11:42:56;99997.80;;;23.30
70533;BMP180;58088;51.186;17.130;2022-10-24T11:45:32;100000.80;;;23.40
70533;BMP180;58088;51.186;17.130;2022-10-24T11:48:23;99996.60;;;23.40
70533;BMP180;58088;51.186;17.130;2022-10-24T11:51:42;99996.00;;;23.40
70533;BMP180;58088;51.186;17.130;2022-10-24T11:54:25;99992.40;;;23.30
70533;BMP180;58088;51.186;17.130;2022-10-24T11:57:10;99994.00;;;23.20
70533;BMP180;58088;51.186;17.130;2022-10-24T11:59:38;99987.60;;;23.20
70533;BMP180;58088;51.186;17.130;2022-10-24T12:05:21;99985.00;;;23.20
70533;BMP180;58088;51.186;17.130;2022-10-24T12:08:16;99982.40;;;23.20
70533;BMP180;58088;51.186;17.130;2022-10-24T12:14:08;99986.40;;;23.20
70533;BMP180;58088;51.186;17.130;2022-10-24T12:19:19;99976.80;;;23.30
70533;BMP180;58088;51.186;17.130;2022-10-24T12:21:56;99976.00;;;23.38
70533;BMP180;58088;51.186;17.130;2022-10-24T12:24:33;99968.20;;;23.40
70533;BMP180;58088;51.186;17.130;2022-10-24T12:27:17;99962.40;;;23.40
70533;BMP180;58088;51.186;17.130;2022-10-24T12:32:42;99957.60;;;23.40
70533;BMP180;58088;51.186;17.130;2022-10-24T12:38:17;99958.40;;;23.30
70533;BMP180;58088;51.186;17.130;2022-10-24T12:41:34;99955.60;;;23.24
70533;BMP180;58088;51.186;17.130;2022-10-24T12:43:49;99952.60;;;23.20
70533;BMP180;58088;51.186;17.130;2022-10-24T12:51:35;99945.60;;;23.20
70533;BMP180;58088;51.186;17.130;2022-10-24T12:54:15;99938.40;;;23.10
70533;BMP180;58088;51.186;17.130;2022-10-24T12:59:31;99928.80;;;23.00
70533;BMP180;58088;51.186;17.130;2022-10-24T13:08:23;99924.20;;;22.90
70533;BMP180;58088;51.186;17.130;2022-10-24T13:17:35;99920.60;;;22.90
70533;BMP180;58088;51.186;17.130;2022-10-24T13:20:22;99923.60;;;22.90
70533;BMP180;58088;51.186;17.130;2022-10-24T13:23:02;99926.00;;;22.80
70533;BMP180;58088;51.186;17.130;2022-10-24T13:25:34;99931.00;;;22.80
70533;BMP180;58088;51.186;17.130;2022-10-24T13:39:01;99944.00;;;22.46
70533;BMP180;58088;51.186;17.130;2022-10-24T13:41:34;99944.00;;;22.34
70533;BMP180;58088;51.186;17.130;2022-10-24T13:44:41;99957.00;;;22.20
70533;BMP180;58088;51.186;17.130;2022-10-24T13:47:33;99954.60;;;22.10
70533;BMP180;58088;51.186;17.130;2022-10-24T13:52:54;99957.80;;;21.90
70533;BMP180;58088;51.186;17.130;2022-10-24T13:55:47;99962.20;;;21.80
70533;BMP180;58088;51.186;17.130;2022-10-24T13:58:23;99966.00;;;21.70
70533;BMP180;58088;51.186;17.130;2022-10-24T14:01:02;99965.20;;;21.60
70533;BMP180;58088;51.186;17.130;2022-10-24T14:03:32;99969.20;;;21.60
70533;BMP180;58088;51.186;17.130;2022-10-24T14:06:00;99974.80;;;21.50
70533;BMP180;58088;51.186;17.130;2022-10-24T14:08:41;99978.00;;;21.48
70533;BMP180;58088;51.186;17.130;2022-10-24T14:11:15;99985.40;;;21.40
70533;BMP180;58088;51.186;17.130;2022-10-24T14:13:58;99977.40;;;21.40
70533;BMP180;58088;51.186;17.130;2022-10-24T14:16:30;99983.80;;;21.30
70533;BMP180;58088;51.186;17.130;2022-10-24T14:21:43;99980.40;;;21.20
70533;BMP180;58088;51.186;17.130;2022-10-24T14:24:20;99980.80;;;21.14
70533;BMP180;58088;51.186;17.130;2022-10-24T14:26:49;99983.20;;;21.14
70533;BMP180;58088;51.186;17.130;2022-10-24T14:29:28;99982.60;;;21.20
70533;BMP180;58088;51.186;17.130;2022-10-24T14:32:02;99987.80;;;21.10
70533;BMP180;58088;51.186;17.130;2022-10-24T14:34:30;99988.60;;;21.10
70533;BMP180;58088;51.186;17.130;2022-10-24T14:37:04;99988.00;;;21.00
70533;BMP180;58088;51.186;17.130;2022-10-24T14:39:32;99987.20;;;21.00
70533;BMP180;58088;51.186;17.130;2022-10-24T14:41:59;99991.00;;;20.90
70533;BMP180;58088;51.186;17.130;2022-10-24T14:44:27;99985.00;;;20.90
70533;BMP180;58088;51.186;17.130;2022-10-24T14:47:20;99985.80;;;20.90
70533;BMP180;58088;51.186;17.130;2022-10-24T14:49:47;99986.00;;;20.82
70533;BMP180;58088;51.186;17.130;2022-10-24T14:57:26;99977.60;;;20.70
70533;BMP180;58088;51.186;17.130;2022-10-24T14:59:55;99975.80;;;20.70
70533;BMP180;58088;51.186;17.130;2022-10-24T15:02:30;99969.00;;;20.60
70533;BMP180;58088;51.186;17.130;2022-10-24T15:10:41;99970.00;;;20.50
70533;BMP180;58088;51.186;17.130;2022-10-24T15:13:17;99978.20;;;20.44
70533;BMP180;58088;51.186;17.130;2022-10-24T15:15:52;99972.40;;;20.50
70533;BMP180;58088;51.186;17.130;2022-10-24T15:18:40;99974.20;;;20.50
70533;BMP180;58088;51.186;17.130;2022-10-24T15:21:16;99962.60;;;20.50
70533;BMP180;58088;51.186;17.130;2022-10-24T15:23:47;99960.20;;;20.50
70533;BMP180;58088;51.186;17.130;2022-10-24T15:26:20;99952.20;;;20.50
70533;BMP180;58088;51.186;17.130;2022-10-24T15:29:07;99955.00;;;20.40
70533;BMP180;58088;51.186;17.130;2022-10-24T15:31:44;99969.80;;;20.30
70533;BMP180;58088;51.186;17.130;2022-10-24T15:34:21;99970.80;;;20.20
70533;BMP180;58088;51.186;17.130;2022-10-24T15:36:50;99976.60;;;20.20
70533;BMP180;58088;51.186;17.130;2022-10-24T15:39:20;99977.60;;;20.10
70533;BMP180;58088;51.186;17.130;2022-10-24T15:41:47;99981.40;;;20.10
70533;BMP180;58088;51.186;17.130;2022-10-24T15:44:36;99987.20;;;20.10
70533;BMP180;58088;51.186;17.130;2022-10-24T15:47:03;99995.00;;;20.10
70533;BMP180;58088;51.186;17.130;2022-10-24T15:49:29;99992.60;;;20.00
70533;BMP180;58088;51.186;17.130;2022-10-24T15:51:57;100003.40;;;20.00
70533;BMP180;58088;51.186;17.130;2022-10-24T15:54:26;100008.40;;;19.90
70533;BMP180;58088;51.186;17.130;2022-10-24T15:56:53;100008.40;;;19.80
70533;BMP180;58088;51.186;17.130;2022-10-24T15:59:19;100006.60;;;19.80
70533;BMP180;58088;51.186;17.130;2022-10-24T16:01:53;100006.60;;;19.78
70533;BMP180;58088;51.186;17.130;2022-10-24T16:04:20;100012.00;;;19.78
70533;BMP180;58088;51.186;17.130;2022-10-24T16:06:48;100011.80;;;19.70
70533;BMP180;58088;51.186;17.130;2022-10-24T16:09:22;100009.80;;;19.70
70533;BMP180;58088;51.186;17.130;2022-10-24T16:11:51;100011.80;;;19.70
70533;BMP180;58088;51.186;17.130;2022-10-24T16:14:20;100014.00;;;19.70
70533;BMP180;58088;51.186;17.130;2022-10-24T16:16:47;100016.40;;;19.70
70533;BMP180;58088;51.186;17.130;2022-10-24T16:19:13;100012.40;;;19.70
70533;BMP180;58088;51.186;17.130;2022-10-24T16:21:41;100010.40;;;19.70